Time;durP1;ratioP1;P1;durP2;ratioP2;P2;SDS_P1;SDS_P2;PMS_P1;PMS_P2;Temp;Humidity;BMP_temperature;BMP_pressure;BME280_temperature;BME280_humidity;BME280_pressure;Samples;Min_cycle;Max_cycle;Signal;HPM_P1;HPM_P2
2022/12/10 00:01:09;;;;;;;25.63;10.13;;;;;;;12.32;75.47;98580.94;6072937;23;20592;-91
2022/12/10 00:03:35;;;;;;;27.63;10.73;;;;;;;12.27;76.02;98593.56;6098467;23;20152;-91
2022/12/10 00:06:06;;;;;;;25.20;9.67;;;;;;;12.25;76.27;98588.41;6098011;23;20179;-91
2022/12/10 00:08:32;;;;;;;27.47;10.13;;;;;;;12.19;76.22;98593.22;6072845;23;20488;-91
2022/12/10 00:10:58;;;;;;;33.77;10.27;;;;;;;12.17;76.64;98597.75;6073138;23;20200;-91
2022/12/10 00:13:23;;;;;;;21.60;9.17;;;;;;;12.19;76.25;98596.72;6097960;23;20155;-91
2022/12/10 00:15:49;;;;;;;24.87;10.10;;;;;;;12.14;76.20;98597.97;6097957;23;20570;-91
2022/12/10 00:18:14;;;;;;;29.73;10.97;;;;;;;12.10;76.79;98597.34;6097946;23;20154;-91
2022/12/10 00:20:40;;;;;;;21.03;9.97;;;;;;;12.05;76.83;98583.69;6096695;23;20168;-91
2022/12/10 00:23:05;;;;;;;26.77;9.47;;;;;;;12.09;76.91;98587.78;6073135;23;20154;-92
2022/12/10 00:25:34;;;;;;;26.07;9.63;;;;;;;12.05;76.92;98582.84;6097797;23;20181;-90
2022/12/10 00:27:59;;;;;;;25.97;10.43;;;;;;;11.96;77.95;98578.19;6072584;23;20554;-91
2022/12/10 00:30:25;;;;;;;32.67;10.00;;;;;;;11.97;77.74;98579.88;6072707;23;20260;-91
2022/12/10 00:32:50;;;;;;;29.70;10.80;;;;;;;11.96;77.93;98580.81;6072622;23;20157;-91
2022/12/10 00:35:16;;;;;;;28.20;11.43;;;;;;;11.99;78.26;98575.34;6097760;23;20149;-91
2022/12/10 00:37:41;;;;;;;25.00;8.97;;;;;;;12.10;78.07;98570.22;6072890;23;20489;-91
2022/12/10 00:40:08;;;;;;;30.03;10.07;;;;;;;12.06;77.67;98560.84;6072903;23;20265;-91
2022/12/10 00:42:33;;;;;;;33.97;10.50;;;;;;;12.12;77.76;98565.72;6097975;23;20197;-91
2022/12/10 00:44:59;;;;;;;29.43;10.67;;;;;;;12.13;77.71;98570.84;6072600;23;20230;-92
2022/12/10 00:47:24;;;;;;;34.50;11.50;;;;;;;12.06;77.55;98576.63;6097966;23;20522;-92
2022/12/10 00:49:50;;;;;;;38.07;12.20;;;;;;;12.01;77.82;98573.47;6072862;23;20254;-91
2022/12/10 00:52:15;;;;;;;31.03;9.97;;;;;;;11.97;78.39;98577.25;6072562;23;20158;-91
2022/12/10 00:54:41;;;;;;;30.80;10.77;;;;;;;12.05;78.79;98574.94;6072549;23;20552;-91
2022/12/10 00:57:07;;;;;;;24.83;10.40;;;;;;;12.12;78.05;98574.44;6073011;23;20165;-92
2022/12/10 00:59:32;;;;;;;30.53;9.00;;;;;;;12.24;78.08;98565.72;6097805;23;20570;-91
2022/12/10 01:01:58;;;;;;;32.03;10.63;;;;;;;12.28;77.78;98559.31;6072621;23;20161;-91
2022/12/10 01:04:24;;;;;;;37.80;9.93;;;;;;;12.25;77.88;98566.56;6097512;23;20151;-91
2022/12/10 01:06:53;;;;;;;26.10;8.77;;;;;;;12.24;78.00;98576.22;6072595;23;20201;-91
2022/12/10 01:09:22;;;;;;;29.60;10.30;;;;;;;12.18;78.17;98578.44;6097703;23;20167;-91
2022/12/10 01:11:49;;;;;;;28.83;11.13;;;;;;;12.23;78.23;98553.53;6072262;23;20605;-92
2022/12/10 01:14:19;;;;;;;26.50;10.03;;;;;;;12.29;77.48;98560.13;6072505;23;20157;-91
2022/12/10 01:16:45;;;;;;;25.33;10.40;;;;;;;12.25;77.74;98574.44;6072211;23;20151;-92
2022/12/10 01:19:11;;;;;;;28.53;10.57;;;;;;;12.22;78.19;98564.13;6072219;23;20165;-91
2022/12/10 01:21:37;;;;;;;25.10;9.80;;;;;;;12.31;77.85;98564.38;6072173;23;20173;-92
2022/12/10 01:24:03;;;;;;;25.77;9.40;;;;;;;12.39;77.92;98553.31;6072268;23;20159;-91
2022/12/10 01:26:33;;;;;;;26.17;10.50;;;;;;;12.41;76.68;98551.41;6097909;23;20177;-91
2022/12/10 01:28:59;;;;;;;30.43;9.73;;;;;;;12.41;77.08;98555.81;6097565;23;20164;-92
2022/12/10 01:31:37;;;;;;;25.13;9.43;;;;;;;12.39;76.96;98557.72;6097654;23;20581;-92
2022/12/10 01:34:06;;;;;;;29.27;9.57;;;;;;;12.38;77.24;98553.41;6072223;23;20187;-92
2022/12/10 01:36:35;;;;;;;39.90;10.43;;;;;;;12.45;76.63;98542.34;6071754;23;20148;-91
2022/12/10 01:39:01;;;;;;;22.13;8.97;;;;;;;12.43;76.96;98541.63;6072207;23;20161;-91
2022/12/10 01:41:37;;;;;;;27.37;10.17;;;;;;;12.47;76.72;98537.00;6097207;23;20223;-91
2022/12/10 01:44:07;;;;;;;22.73;9.20;;;;;;;12.46;76.79;98536.16;6072126;23;20225;-91
2022/12/10 01:46:41;;;;;;;27.87;10.13;;;;;;;12.50;77.30;98535.00;6097081;23;20176;-91
2022/12/10 01:49:10;;;;;;;19.97;7.57;;;;;;;12.54;77.06;98528.59;6097283;23;20315;-91
2022/12/10 01:51:38;;;;;;;30.37;10.57;;;;;;;12.59;76.83;98536.16;6096940;23;20158;-91
2022/12/10 01:54:08;;;;;;;29.43;11.20;;;;;;;12.65;76.27;98530.47;6097434;23;20233;-91
2022/12/10 01:56:37;;;;;;;24.00;8.63;;;;;;;12.65;75.86;98515.53;6096986;23;20166;-91
2022/12/10 01:59:04;;;;;;;24.40;9.00;;;;;;;12.63;75.85;98512.16;6097383;23;20153;-91
2022/12/10 02:01:32;;;;;;;21.93;8.97;;;;;;;12.58;76.32;98509.00;6072754;23;20164;-91
2022/12/10 02:04:08;;;;;;;25.70;10.33;;;;;;;12.59;76.30;98509.84;6071683;23;20240;-91
2022/12/10 02:06:48;;;;;;;23.50;9.80;;;;;;;12.58;76.78;98511.63;6097241;23;20170;-91
2022/12/10 02:09:31;;;;;;;16.90;7.97;;;;;;;12.58;76.73;98498.50;6097299;23;20142;-91
2022/12/10 02:12:18;;;;;;;25.30;8.73;;;;;;;12.56;76.36;98495.13;6097195;23;20145;-91
2022/12/10 02:15:12;;;;;;;34.23;10.13;;;;;;;12.51;76.76;98492.00;6097585;23;20141;-91
2022/12/10 02:17:43;;;;;;;22.67;8.37;;;;;;;12.55;76.33;98484.75;6071697;23;20160;-91
2022/12/10 02:20:27;;;;;;;23.93;9.50;;;;;;;12.46;77.14;98490.63;6071804;23;20161;-91
2022/12/10 02:23:07;;;;;;;23.67;9.10;;;;;;;12.46;76.96;98478.34;6097319;23;20253;-91
2022/12/10 02:26:09;;;;;;;20.73;9.30;;;;;;;12.47;77.20;98479.19;6097113;23;20169;-91
2022/12/10 02:29:11;;;;;;;23.13;8.57;;;;;;;12.50;77.06;98476.34;6097449;23;20149;-91
2022/12/10 02:31:39;;;;;;;25.20;9.03;;;;;;;12.50;77.20;98485.03;6097637;23;20148;-91
2022/12/10 02:34:08;;;;;;;24.77;8.53;;;;;;;12.40;77.66;98473.50;6071736;23;20155;-91
2022/12/10 02:36:37;;;;;;;28.37;9.87;;;;;;;12.34;77.92;98479.22;6097040;23;20153;-91
2022/12/10 02:39:07;;;;;;;31.07;11.07;;;;;;;12.32;78.18;98470.56;6071604;23;20150;-91
2022/12/10 02:41:41;;;;;;;29.73;9.23;;;;;;;12.24;78.68;98476.38;6096819;23;20160;-91
2022/12/10 02:44:11;;;;;;;28.57;10.73;;;;;;;12.32;78.66;98468.78;6071731;23;20158;-91
2022/12/10 02:46:39;;;;;;;27.83;10.63;;;;;;;12.39;77.93;98463.97;6071661;23;20186;-91
2022/12/10 02:49:08;;;;;;;32.40;11.00;;;;;;;12.43;77.76;98475.94;6098872;23;20150;-91
2022/12/10 02:51:34;;;;;;;38.60;10.17;;;;;;;12.50;77.71;98474.53;6073588;23;20158;-91
2022/12/10 02:54:05;;;;;;;47.30;9.60;;;;;;;12.48;77.47;98481.69;6073864;23;20159;-91
2022/12/10 02:56:36;;;;;;;28.13;10.10;;;;;;;12.51;77.39;98478.84;6073622;23;20145;-91
2022/12/10 02:59:25;;;;;;;42.50;9.83;;;;;;;12.50;77.47;98469.28;6073571;23;20164;-92
2022/12/10 03:02:10;;;;;;;50.10;9.67;;;;;;;12.63;76.97;98477.16;6099105;23;20212;-91
2022/12/10 03:05:09;;;;;;;21.10;8.47;;;;;;;12.50;76.32;98485.03;6073640;23;20167;-91
2022/12/10 03:07:55;;;;;;;55.53;9.83;;;;;;;12.33;77.01;98493.28;6099008;23;20215;-92
2022/12/10 03:10:25;;;;;;;57.40;10.97;;;;;;;12.17;77.74;98495.28;6098908;23;20149;-90
2022/12/10 03:12:58;;;;;;;47.93;10.57;;;;;;;12.21;77.21;98487.09;6073645;23;20162;-91
2022/12/10 03:15:26;;;;;;;34.77;10.27;;;;;;;12.18;77.56;98487.31;6073881;23;20549;-91
2022/12/10 03:17:54;;;;;;;46.50;10.50;;;;;;;12.04;77.96;98483.97;6073284;23;20168;-91
2022/12/10 03:20:21;;;;;;;26.77;9.10;;;;;;;11.93;78.61;98473.34;6098875;23;20160;-91
2022/12/10 03:22:48;;;;;;;45.33;9.33;;;;;;;11.87;78.60;98473.78;6073219;23;20171;-91
2022/12/10 03:25:18;;;;;;;41.43;9.73;;;;;;;11.92;79.13;98467.28;6073043;23;20211;-91
2022/12/10 03:27:49;;;;;;;33.97;10.70;;;;;;;11.96;78.70;98468.72;6073549;23;20156;-91
2022/12/10 03:30:15;;;;;;;37.20;10.67;;;;;;;11.93;78.75;98470.72;6098439;23;20216;-91
2022/12/10 03:32:43;;;;;;;35.67;11.30;;;;;;;11.89;79.38;98458.75;6099041;23;20516;-91
2022/12/10 03:35:09;;;;;;;29.37;10.23;;;;;;;12.04;79.23;98466.41;6098650;23;20164;-91
2022/12/10 03:37:35;;;;;;;26.80;10.47;;;;;;;12.07;78.97;98470.63;6098867;23;20165;-91
2022/12/10 03:40:02;;;;;;;32.83;11.23;;;;;;;12.06;79.29;98469.78;6073292;23;20245;-91
2022/12/10 03:42:28;;;;;;;33.20;11.47;;;;;;;12.11;78.83;98480.78;6072995;23;20317;-92
2022/12/10 03:44:53;;;;;;;33.07;10.53;;;;;;;12.19;78.82;98480.25;6098345;23;20150;-92
2022/12/10 03:47:19;;;;;;;29.83;10.77;;;;;;;12.21;78.68;98470.50;6072941;23;20213;-91
2022/12/10 03:49:45;;;;;;;28.87;10.53;;;;;;;12.28;78.77;98474.38;6073108;23;20158;-91
2022/12/10 03:52:10;;;;;;;30.43;11.40;;;;;;;12.39;77.68;98461.34;6098249;23;20165;-91
2022/12/10 03:54:36;;;;;;;31.90;10.33;;;;;;;12.45;77.21;98460.06;6073114;23;20276;-92
2022/12/10 03:57:02;;;;;;;29.53;10.83;;;;;;;12.42;77.11;98471.59;6073741;23;20164;-92
2022/12/10 03:59:28;;;;;;;32.80;13.10;;;;;;;12.41;77.31;98485.72;6072792;23;20167;-92
2022/12/10 04:01:53;;;;;;;31.70;11.60;;;;;;;12.34;77.56;98472.16;6098104;23;20217;-91
2022/12/10 04:04:19;;;;;;;26.77;12.73;;;;;;;12.34;77.30;98464.25;6072993;23;20229;-92
2022/12/10 04:06:44;;;;;;;30.50;11.70;;;;;;;12.29;77.13;98470.78;6097997;23;20172;-91
2022/12/10 04:09:12;;;;;;;26.50;11.40;;;;;;;12.30;77.67;98459.34;6072921;23;20199;-92
2022/12/10 04:11:37;;;;;;;28.43;10.77;;;;;;;12.32;77.34;98446.94;6073380;23;20156;-92
2022/12/10 04:16:47;;;;;;;26.63;9.80;;;;;;;12.36;77.26;98450.19;6098729;23;20573;-91
2022/12/10 04:19:18;;;;;;;27.33;9.13;;;;;;;12.40;77.24;98457.75;6098268;23;20150;-92
2022/12/10 04:27:27;;;;;;;26.37;9.80;;;;;;;12.39;77.29;98457.88;6098588;23;20216;-92
2022/12/10 04:29:54;;;;;;;25.73;9.33;;;;;;;12.46;76.74;98451.22;6073435;23;20150;-91
2022/12/10 04:32:21;;;;;;;24.90;9.77;;;;;;;12.36;76.71;98444.94;6072656;23;20170;-92
2022/12/10 04:34:46;;;;;;;23.37;9.37;;;;;;;12.40;76.58;98460.38;6072694;23;20490;-92
2022/12/10 04:37:12;;;;;;;29.40;10.43;;;;;;;12.39;75.87;98444.72;6072672;23;20196;-91
2022/12/10 04:39:38;;;;;;;28.23;9.60;;;;;;;12.27;76.35;98457.78;6072662;23;20471;-91
2022/12/10 04:42:05;;;;;;;24.53;8.90;;;;;;;12.16;77.02;98455.03;6097802;23;20164;-91
2022/12/10 04:44:30;;;;;;;26.80;10.23;;;;;;;12.14;76.89;98458.72;6073626;23;20161;-92
2022/12/10 04:46:56;;;;;;;23.20;9.90;;;;;;;12.14;77.24;98461.34;6096807;23;20695;-92
2022/12/10 04:49:22;;;;;;;25.70;8.50;;;;;;;12.11;77.83;98456.31;6073508;23;20154;-92
2022/12/10 04:51:47;;;;;;;26.67;10.93;;;;;;;12.10;77.69;98457.28;6098115;23;20166;-92
2022/12/10 04:54:14;;;;;;;24.30;8.53;;;;;;;12.09;77.91;98458.22;6072543;23;20163;-92
2022/12/10 04:56:40;;;;;;;29.10;9.03;;;;;;;12.09;78.01;98466.09;6073031;23;20152;-92
2022/12/10 04:59:06;;;;;;;24.50;8.70;;;;;;;12.15;77.83;98468.31;6072638;23;20195;-92
2022/12/10 05:01:36;;;;;;;22.53;9.90;;;;;;;12.18;77.86;98473.34;6097528;23;20229;-91
2022/12/10 05:04:04;;;;;;;24.63;8.53;;;;;;;12.18;77.82;98466.31;6073956;23;20304;-92
2022/12/10 05:06:30;;;;;;;23.63;8.20;;;;;;;12.22;77.33;98470.38;6072656;23;20531;-92
2022/12/10 05:08:56;;;;;;;27.83;8.80;;;;;;;12.22;77.09;98462.50;6072817;23;20589;-92
2022/12/10 05:11:24;;;;;;;20.40;8.53;;;;;;;12.23;76.50;98465.97;6072588;23;20480;-92
2022/12/10 05:13:50;;;;;;;24.40;8.50;;;;;;;12.25;76.57;98469.34;6072454;23;20239;-92
2022/12/10 05:16:18;;;;;;;27.17;8.53;;;;;;;12.22;76.91;98469.53;6072409;23;20185;-91
2022/12/10 05:18:44;;;;;;;21.23;8.67;;;;;;;12.22;77.50;98469.53;6072472;23;20535;-91
2022/12/10 05:21:15;;;;;;;25.57;10.33;;;;;;;12.28;77.24;98469.97;6072734;23;20157;-92
2022/12/10 05:23:47;;;;;;;22.80;8.93;;;;;;;12.26;77.13;98460.50;6072643;23;20232;-92
2022/12/10 05:26:21;;;;;;;18.20;8.77;;;;;;;12.26;76.81;98463.16;6072238;23;20174;-91
2022/12/10 05:28:52;;;;;;;28.00;10.43;;;;;;;12.24;76.73;98462.38;6072352;23;20149;-92
2022/12/10 05:31:22;;;;;;;23.57;8.70;;;;;;;12.27;76.96;98459.56;6097511;23;20216;-92
2022/12/10 05:33:48;;;;;;;29.80;9.53;;;;;;;12.30;77.33;98459.34;6073235;23;20573;-92
2022/12/10 05:36:16;;;;;;;26.83;8.93;;;;;;;12.31;76.89;98456.63;6072793;23;20241;-91
2022/12/10 05:38:42;;;;;;;22.80;8.27;;;;;;;12.41;76.87;98463.84;6072112;23;20172;-92
2022/12/10 05:41:15;;;;;;;22.53;8.53;;;;;;;12.44;76.27;98459.22;6097660;23;20152;-92
2022/12/10 05:43:41;;;;;;;21.27;8.70;;;;;;;12.51;75.65;98449.94;6073342;23;20586;-91
2022/12/10 05:46:11;;;;;;;25.17;8.70;;;;;;;12.49;75.55;98451.00;6073191;23;20193;-92
2022/12/10 05:48:37;;;;;;;23.13;8.67;;;;;;;12.42;75.63;98457.66;6072261;23;20646;-92
2022/12/10 05:51:08;;;;;;;30.67;10.43;;;;;;;12.17;76.28;98453.25;6072364;23;20164;-92
2022/12/10 05:53:38;;;;;;;23.47;9.17;;;;;;;11.93;77.31;98447.91;6072103;23;20574;-92
2022/12/10 05:56:07;;;;;;;27.77;9.10;;;;;;;11.93;77.58;98449.69;6097200;23;20137;-93
2022/12/10 05:58:36;;;;;;;19.93;7.80;;;;;;;12.00;77.97;98454.44;6071955;23;20185;-92
2022/12/10 06:01:08;;;;;;;28.97;9.40;;;;;;;12.08;77.80;98453.91;6072346;23;20557;-92
2022/12/10 06:03:34;;;;;;;25.63;8.47;;;;;;;12.15;77.82;98448.13;6071994;23;20244;-92
2022/12/10 06:05:59;;;;;;;31.63;9.93;;;;;;;12.26;77.70;98456.06;6072342;23;20213;-92
2022/12/10 06:08:25;;;;;;;22.43;8.60;;;;;;;12.24;77.50;98457.97;6072021;23;20182;-92
2022/12/10 06:10:50;;;;;;;29.07;9.70;;;;;;;12.33;77.47;98451.25;6097347;23;20154;-91
2022/12/10 06:13:16;;;;;;;27.23;9.27;;;;;;;12.36;76.78;98455.44;6097679;23;20160;-92
2022/12/10 06:15:46;;;;;;;22.60;9.10;;;;;;;12.30;77.21;98459.34;6097150;23;20536;-91
2022/12/10 06:18:14;;;;;;;25.40;9.03;;;;;;;12.19;77.40;98464.50;6072543;23;20580;-92
2022/12/10 06:20:40;;;;;;;28.53;10.27;;;;;;;12.16;78.16;98468.19;6071768;23;20169;-92
2022/12/10 06:23:06;;;;;;;27.20;10.03;;;;;;;12.26;78.19;98457.88;6071870;23;20158;-92
2022/12/10 06:25:40;;;;;;;29.17;9.73;;;;;;;12.39;78.05;98449.97;6071961;23;20200;-92
2022/12/10 06:28:09;;;;;;;23.57;8.77;;;;;;;12.57;76.99;98439.00;6072095;23;20236;-92
2022/12/10 06:30:37;;;;;;;26.53;9.03;;;;;;;12.64;76.29;98456.00;6072237;23;20160;-92
2022/12/10 06:33:10;;;;;;;28.07;9.73;;;;;;;12.71;76.01;98451.16;6097687;23;20162;-92
2022/12/10 06:35:37;;;;;;;27.50;9.53;;;;;;;12.68;76.32;98451.38;6071767;23;20189;-92
2022/12/10 06:38:10;;;;;;;38.83;10.17;;;;;;;12.70;76.76;98452.94;6071736;23;20544;-91
2022/12/10 06:40:48;;;;;;;22.97;10.17;;;;;;;12.83;75.87;98458.16;6072000;23;20632;-92
2022/12/10 06:43:16;;;;;;;28.37;9.93;;;;;;;12.77;76.45;98446.28;6072389;23;20159;-91
2022/12/10 06:45:51;;;;;;;25.77;10.17;;;;;;;12.83;77.00;98459.00;6071718;23;20214;-92
2022/12/10 06:48:27;;;;;;;;;;;;;;;;;;;;;
2022/12/10 06:51:00;;;;;;;26.70;10.43;;;;;;;12.94;76.32;98459.03;6098022;23;20240;-92
2022/12/10 06:53:38;;;;;;;26.77;8.70;;;;;;;12.90;76.21;98462.00;6098046;23;20152;-93
2022/12/10 06:56:06;;;;;;;35.87;10.17;;;;;;;12.83;76.10;98453.75;6073183;23;20510;-92
2022/12/10 06:58:43;;;;;;;;;;;;;;;;;;;;;
2022/12/10 07:01:27;;;;;;;27.20;10.10;;;;;;;13.00;75.37;98447.22;6097918;23;20218;-92
2022/12/10 07:03:54;;;;;;;28.90;9.47;;;;;;;13.01;75.40;98442.81;6071688;23;20175;-92
2022/12/10 07:06:23;;;;;;;30.17;9.73;;;;;;;12.93;76.02;98446.00;6071786;23;20623;-92
2022/12/10 07:08:54;;;;;;;27.73;10.53;;;;;;;12.83;76.48;98448.47;6096887;23;20152;-91
2022/12/10 07:11:22;;;;;;;23.57;8.90;;;;;;;12.76;77.30;98447.22;6072801;23;20156;-92
2022/12/10 07:13:50;;;;;;;25.57;9.50;;;;;;;12.75;77.22;98449.97;6072318;23;20185;-92
2022/12/10 07:16:25;;;;;;;21.57;9.90;;;;;;;12.84;77.57;98451.94;6097086;23;20281;-92
2022/12/10 07:19:03;;;;;;;34.07;10.50;;;;;;;13.00;77.86;98454.31;6072133;23;20163;-93
2022/12/10 07:21:36;;;;;;;28.73;10.73;;;;;;;13.19;77.81;98442.34;6072099;23;20162;-91
2022/12/10 07:24:10;;;;;;;27.90;10.37;;;;;;;13.25;77.55;98435.78;6071625;23;20159;-92
2022/12/10 07:27:24;;;;;;;25.57;10.00;;;;;;;13.31;77.09;98435.34;6071487;23;20664;-92
2022/12/10 07:29:54;;;;;;;26.93;10.90;;;;;;;13.39;77.50;98427.69;6071244;23;20187;-91
2022/12/10 07:36:12;;;;;;;;;;;;;;;;;;;;;
2022/12/10 08:15:04;;;;;;;;;;;;;;;;;;;;;
2022/12/10 08:28:34;;;;;;;23.20;9.03;;;;;;;15.05;72.50;98393.34;5610655;25;20316;-91
2022/12/10 08:37:52;;;;;;;30.07;9.07;;;;;;;14.46;72.78;98400.84;5860388;24;20536;-91
2022/12/10 08:40:27;;;;;;;26.23;8.90;;;;;;;14.28;73.06;98393.53;5913751;23;20157;-90
2022/12/10 08:43:24;;;;;;;28.90;9.47;;;;;;;14.22;72.90;98407.19;6091955;23;20160;-92
2022/12/10 08:45:55;;;;;;;27.47;9.87;;;;;;;14.11;73.36;98400.13;6073692;23;20207;-92
2022/12/10 08:48:31;;;;;;;;;;;;;;;;;;;;;
2022/12/10 08:51:20;;;;;;;26.57;10.43;;;;;;;14.24;73.50;98392.09;6098726;23;20511;-91
2022/12/10 08:56:59;;;;;;;;;;;;;;;;;;;;;
2022/12/10 08:59:50;;;;;;;28.93;10.77;;;;;;;14.27;72.95;98384.78;6098081;23;20224;-91
2022/12/10 09:02:28;;;;;;;26.67;11.50;;;;;;;14.22;73.25;98388.75;6062370;23;20168;-91
2022/12/10 09:04:54;;;;;;;28.60;11.47;;;;;;;14.02;73.47;98372.69;6073356;23;20175;-91
2022/12/10 09:07:20;;;;;;;29.93;12.10;;;;;;;13.95;74.58;98376.78;6097407;23;20513;-91
2022/12/10 09:09:48;;;;;;;35.47;12.77;;;;;;;13.91;74.36;98369.25;6072390;23;20172;-91
2022/12/10 09:12:36;;;;;;;31.00;11.17;;;;;;;14.05;74.51;98361.91;6097384;23;20152;-92
2022/12/10 09:15:08;;;;;;;36.40;12.17;;;;;;;14.11;74.03;98364.06;6072273;23;20157;-92
2022/12/10 09:17:35;;;;;;;33.70;11.53;;;;;;;14.18;73.61;98360.97;6072231;23;20224;-91
2022/12/10 09:20:24;;;;;;;39.27;12.40;;;;;;;14.37;74.04;98350.63;6097304;23;20149;-91
2022/12/10 09:23:08;;;;;;;;;;;;;;;;;;;;;
2022/12/10 09:25:56;;;;;;;32.20;12.13;;;;;;;14.68;74.67;98342.75;6098283;23;20267;-92
2022/12/10 09:29:12;;;;;;;;;;;;;;;;;;;;;
2022/12/10 09:35:22;;;;;;;28.93;10.23;;;;;;;15.19;71.76;98316.50;6092401;23;20162;-92
2022/12/10 09:45:47;;;;;;;;;;;;;;;;;;;;;
2022/12/10 10:47:36;;;;;;;;;;;;;;;;;;;;;
2022/12/10 10:51:44;;;;;;;;;;;;;;;;;;;;;
2022/12/10 10:58:26;;;;;;;;;;;;;;;;;;;;;
2022/12/10 11:01:50;;;;;;;;;;;;;;;;;;;;;
2022/12/10 11:08:45;;;;;;;;;;;;;;;;;;;;;
2022/12/10 11:23:03;;;;;;;;;;;;;;;;;;;;;
2022/12/10 12:32:39;;;;;;;;;;;;;;;;;;;;;
2022/12/10 13:48:05;;;;;;;9.43;2.60;;;;;;;18.83;63.24;98040.19;5984073;23;20202;-92
2022/12/10 13:51:14;;;;;;;9.57;2.53;;;;;;;18.83;63.10;98034.88;5958060;24;20163;-92
2022/12/10 14:19:58;;;;;;;9.57;2.67;;;;;;;18.83;62.68;98011.00;6062744;23;20283;-90
2022/12/10 14:32:59;;;;;;;19.30;3.60;;;;;;;18.55;65.76;98014.00;5979006;24;20267;-89
2022/12/10 14:39:17;;;;;;;25.73;4.27;;;;;;;18.46;66.27;98005.13;5987711;23;20176;-92
2022/12/10 14:42:01;;;;;;;12.17;4.07;;;;;;;18.36;66.73;97996.44;6009534;23;20181;-91
2022/12/10 14:48:07;;;;;;;19.43;3.47;;;;;;;18.35;66.57;98013.34;6011385;23;20196;-91
2022/12/10 14:51:29;;;;;;;;;;;;;;;;;;;;;
2022/12/10 14:54:31;;;;;;;12.83;3.60;;;;;;;18.24;66.87;97987.91;6012148;23;20717;-92
2022/12/10 15:18:04;;;;;;;9.67;3.60;;;;;;;17.82;68.73;97962.28;6007951;23;20154;-94
2022/12/10 15:21:05;;;;;;;23.07;3.70;;;;;;;17.66;69.91;97966.44;5988513;23;20170;-95
2022/12/10 15:31:02;;;;;;;15.63;4.13;;;;;;;17.34;71.67;97978.53;5954931;24;20197;-95
2022/12/10 15:33:52;;;;;;;7.17;2.37;;;;;;;17.22;72.46;97977.91;5955561;24;20176;-91
2022/12/10 15:36:37;;;;;;;9.17;2.47;;;;;;;17.25;72.40;97968.84;5955330;24;20234;-94
2022/12/10 15:43:02;;;;;;;14.67;3.90;;;;;;;17.38;71.83;97975.44;5926734;24;20157;-94
2022/12/10 15:46:19;;;;;;;15.43;4.17;;;;;;;17.59;71.10;97977.81;5954240;24;20163;-93
2022/12/10 15:49:25;;;;;;;16.53;3.77;;;;;;;17.55;71.18;97972.00;5931512;24;20160;-94
2022/12/10 16:02:33;;;;;;;10.90;3.53;;;;;;;17.64;70.40;97963.13;6039032;23;20165;-94
2022/12/10 16:56:16;;;;;;;12.87;3.50;;;;;;;18.00;69.60;97944.50;5766671;24;20175;-95
2022/12/10 16:59:37;;;;;;;8.30;2.30;;;;;;;17.69;70.89;97930.84;5767500;24;20603;-94
2022/12/10 17:02:43;;;;;;;23.70;2.50;;;;;;;17.68;71.56;97930.03;5766240;24;20261;-94
2022/12/10 17:05:48;;;;;;;8.23;2.57;;;;;;;17.69;71.38;97923.72;5765158;24;20512;-93
2022/12/10 17:26:01;;;;;;;;;;;;;;;;;;;;;
2022/12/10 17:29:11;;;;;;;11.77;3.77;;;;;;;17.84;71.46;97896.69;6038464;23;20251;-94
2022/12/10 17:31:49;;;;;;;8.80;3.00;;;;;;;17.69;72.00;97889.28;5954076;24;20176;-93
2022/12/10 17:38:17;;;;;;;10.93;2.20;;;;;;;17.66;71.73;97899.38;5898826;24;20693;-95
2022/12/10 17:41:29;;;;;;;4.47;2.23;;;;;;;17.61;72.00;97899.03;5899648;24;20618;-94
2022/12/10 17:43:54;;;;;;;7.20;3.60;;;;;;;17.58;72.45;97900.13;5917719;24;20159;-93
2022/12/10 17:49:58;;;;;;;10.30;2.53;;;;;;;17.68;72.25;97902.69;5872825;24;20174;-96
2022/12/10 17:52:26;;;;;;;9.87;2.20;;;;;;;17.61;73.58;97901.66;5872501;24;20142;-93
2022/12/10 18:02:08;;;;;;;8.73;2.40;;;;;;;17.83;73.77;97890.53;6084102;23;20214;-96
2022/12/10 18:08:22;;;;;;;5.17;2.10;;;;;;;17.57;75.73;97892.34;6099770;23;20506;-95
2022/12/10 18:11:34;;;;;;;9.07;2.37;;;;;;;17.45;76.82;97890.91;6088919;23;20166;-93
2022/12/10 18:17:34;;;;;;;11.33;2.13;;;;;;;17.59;76.11;97882.41;6007142;23;20176;-89
2022/12/10 18:30:28;;;;;;;9.73;2.03;;;;;;;17.52;76.97;97837.16;6126680;23;20152;-94
2022/12/10 19:00:34;;;;;;;;;;;;;;;;;;;;;
2022/12/10 19:03:10;;;;;;;5.17;1.53;;;;;;;17.58;77.77;97812.69;6009825;23;20623;-92
2022/12/10 19:09:17;;;;;;;2.80;1.40;;;;;;;17.49;78.58;97818.06;5926345;24;20227;-90
2022/12/10 19:40:25;;;;;;;12.93;2.43;;;;;;;17.62;77.82;97763.72;6086115;23;20222;-91
2022/12/10 19:42:53;;;;;;;2.63;0.90;;;;;;;17.53;78.05;97750.59;6098770;23;20248;-91
2022/12/10 19:48:54;;;;;;;14.57;2.10;;;;;;;17.55;77.67;97744.16;5984046;24;20182;-94
2022/12/10 20:01:36;;;;;;;9.43;1.93;;;;;;;17.68;75.83;97735.75;6012018;23;20146;-91
2022/12/10 20:04:16;;;;;;;7.07;1.70;;;;;;;17.75;75.12;97724.34;6011712;23;20158;-94
2022/12/10 20:06:46;;;;;;;4.53;1.40;;;;;;;17.66;75.83;97719.19;6110111;23;20187;-90
2022/12/10 20:16:34;;;;;;;8.07;2.57;;;;;;;17.71;75.72;97712.41;5983128;24;20150;-93
2022/12/10 20:19:00;;;;;;;8.07;2.53;;;;;;;17.68;76.06;97707.44;5984206;24;20159;-91
2022/12/10 20:21:28;;;;;;;5.93;2.00;;;;;;;17.44;77.79;97688.75;5983260;24;20159;-93
2022/12/10 20:24:50;;;;;;;6.07;2.33;;;;;;;17.55;77.61;97696.47;5984423;24;20159;-96
2022/12/10 20:27:21;;;;;;;13.13;1.70;;;;;;;17.56;77.02;97676.06;5901227;24;20193;-93
2022/12/10 20:29:47;;;;;;;7.27;2.27;;;;;;;17.62;77.07;97681.56;5902501;24;20165;-94
2022/12/10 20:32:22;;;;;;;;;;;;;;;;;;;;;
2022/12/10 20:38:02;;;;;;;4.93;1.97;;;;;;;17.59;77.10;97668.63;5924855;24;20492;-94
2022/12/10 20:40:55;;;;;;;7.80;1.77;;;;;;;17.72;76.58;97671.66;5954396;24;20250;-95
2022/12/10 20:43:55;;;;;;;2.60;1.60;;;;;;;17.60;76.74;97678.25;6039169;23;20155;-94
2022/12/10 20:46:39;;;;;;;7.03;1.67;;;;;;;17.51;77.25;97665.91;6127705;23;20183;-94
2022/12/10 20:49:46;;;;;;;16.73;2.67;;;;;;;17.66;76.86;97660.91;6104623;23;20148;-92
2022/12/10 20:52:55;;;;;;;6.10;1.77;;;;;;;17.71;76.51;97679.78;6103928;23;20147;-91
2022/12/10 20:55:20;;;;;;;10.10;2.07;;;;;;;17.86;75.92;97672.88;6010332;23;20590;-88
2022/12/10 20:57:46;;;;;;;9.53;1.90;;;;;;;17.97;75.17;97671.75;5987099;23;20157;-91
2022/12/10 21:03:51;;;;;;;8.17;2.37;;;;;;;17.79;75.65;97640.88;6001587;23;20154;-93
2022/12/10 21:06:31;;;;;;;7.80;1.87;;;;;;;17.88;75.55;97628.47;6080947;23;20270;-92
2022/12/10 21:09:03;;;;;;;12.93;2.70;;;;;;;17.79;75.71;97611.72;6101992;23;20155;-93
2022/12/10 21:11:35;;;;;;;11.77;1.80;;;;;;;17.71;75.87;97606.41;6127359;23;20152;-95
2022/12/10 21:14:09;;;;;;;5.53;2.27;;;;;;;17.80;75.45;97589.53;6102506;23;20241;-90
2022/12/10 21:16:40;;;;;;;9.07;2.23;;;;;;;17.66;76.26;97587.50;6101848;23;20165;-93
2022/12/10 21:19:35;;;;;;;7.87;2.17;;;;;;;17.64;76.53;97584.19;6102954;23;20571;-95
2022/12/10 21:22:15;;;;;;;15.83;2.20;;;;;;;17.58;76.29;97566.28;6114446;23;20159;-94
2022/12/10 21:24:44;;;;;;;8.77;1.67;;;;;;;17.56;76.52;97548.91;6127429;23;20514;-92
2022/12/10 21:27:12;;;;;;;12.30;2.90;;;;;;;17.61;76.63;97543.97;6127334;23;20180;-93
2022/12/10 21:29:37;;;;;;;11.70;1.77;;;;;;;17.72;76.25;97552.41;6127397;23;20256;-93
2022/12/10 21:32:06;;;;;;;8.17;1.73;;;;;;;17.67;76.08;97535.34;6101425;23;20212;-95
2022/12/10 21:34:35;;;;;;;3.30;1.43;;;;;;;17.67;75.97;97541.47;6127049;23;20155;-93
2022/12/10 21:37:03;;;;;;;8.97;1.80;;;;;;;17.55;76.56;97537.50;6101418;23;20159;-93
2022/12/10 21:39:28;;;;;;;4.07;1.50;;;;;;;17.55;76.29;97531.38;6127442;23;20731;-93
2022/12/10 21:45:04;;;;;;;8.67;2.20;;;;;;;17.75;75.47;97544.16;6126838;23;20230;-92
2022/12/10 21:47:30;;;;;;;15.77;2.03;;;;;;;17.70;75.80;97556.22;6126824;23;20175;-90
2022/12/10 21:49:58;;;;;;;11.37;2.17;;;;;;;17.67;75.88;97545.94;6127161;23;20221;-91
2022/12/10 21:52:32;;;;;;;13.93;2.90;;;;;;;17.78;75.26;97533.22;6126494;23;20150;-91
2022/12/10 21:55:00;;;;;;;13.07;2.30;;;;;;;17.77;75.26;97526.25;6126829;23;20210;-92
2022/12/10 21:57:25;;;;;;;18.77;2.57;;;;;;;17.89;74.58;97517.97;6127099;23;20158;-90
2022/12/10 21:59:51;;;;;;;18.53;2.40;;;;;;;17.90;74.32;97520.44;6127205;23;20152;-93